ENBM weather

Bømoen Airport
Tjukkebygdi, Hordaland, Norway

Public forecast

Using degrees Celsius for public forecast. Weather courtesy of forecast.io.

Closest aviation weather report (METAR) to Bømoen Airport

Report is more than 2 hours old.

Closest report is Sogndal Airport, 36.2 nm (67.0 km) NNE. Retrieved 2020/01/19 20:50 UTC (3 hours ago):

ENSG 192050Z 24010KT 4000 -SN FEW007 VV012 00/00 Q1031 RMK WIND 3806FT 24024KT

Closest aviation forecast (TAF) to Bømoen Airport

Closest forecast is Bergen Airport Flesland, 43.3 nm (80.1 km) WSW. Retrieved 2020/01/19 18:57 UTC (5 hours ago):

TAF ENBR 191700Z 1918/2018 VRB07KT 9999 -RA BKN015 BECMG 1918/1921 19012KT 4000 RA BR BKN010 TEMPO 2002/2010 2000 DZRA BR BKN004